Time;durP1;ratioP1;P1;durP2;ratioP2;P2;SDS_P1;SDS_P2;PMS_P1;PMS_P2;Temp;Humidity;BMP_temperature;BMP_pressure;BME280_temperature;BME280_humidity;BME280_pressure;Samples;Min_cycle;Max_cycle;Signal;HPM_P1;HPM_P2
2024/02/24 00:01:26;;;;;;;32.60;19.30;;;;;;;-2.59;100.00;141647.31;106870;1253;25359;-67
2024/02/24 00:04:11;;;;;;;29.90;19.70;;;;;;;-2.59;100.00;141647.03;106879;1266;25353;-68
2024/02/24 00:06:57;;;;;;;33.50;18.80;;;;;;;-2.57;100.00;141651.00;106814;1263;22636;-71
2024/02/24 00:09:43;;;;;;;29.30;18.20;;;;;;;-2.60;100.00;141644.56;106748;1275;25351;-66
2024/02/24 00:12:29;;;;;;;34.30;19.60;;;;;;;-2.59;100.00;141645.56;106714;1273;25335;-65
2024/02/24 00:15:14;;;;;;;31.30;18.70;;;;;;;-2.59;100.00;141645.81;106396;1275;25490;-65
2024/02/24 00:18:02;;;;;;;30.10;17.90;;;;;;;-2.58;100.00;141649.77;106445;1276;25536;-67
2024/02/24 00:20:49;;;;;;;34.80;17.80;;;;;;;-2.57;100.00;141650.52;106569;1267;25406;-69
2024/02/24 00:23:34;;;;;;;29.70;18.70;;;;;;;-2.58;100.00;141649.53;106555;1266;25474;-66
2024/02/24 00:26:20;;;;;;;30.20;17.20;;;;;;;-2.58;100.00;141648.28;106659;1266;25356;-64
2024/02/24 00:29:05;;;;;;;30.60;17.80;;;;;;;-2.60;100.00;141645.06;106619;1269;25406;-69
2024/02/24 00:31:51;;;;;;;30.20;16.80;;;;;;;-2.59;100.00;141645.30;106530;1276;25373;-63
2024/02/24 00:34:37;;;;;;;33.70;17.20;;;;;;;-2.58;100.00;141650.03;106592;1269;25375;-66
2024/02/24 00:37:22;;;;;;;35.60;19.60;;;;;;;-2.59;100.00;141646.05;106527;1270;25421;-66
2024/02/24 00:40:09;;;;;;;31.50;17.60;;;;;;;-2.59;100.00;141646.53;106570;1273;25370;-67
2024/02/24 00:42:55;;;;;;;28.20;17.60;;;;;;;-2.57;100.00;141650.53;106519;1270;25360;-68
2024/02/24 00:45:40;;;;;;;36.00;18.10;;;;;;;-2.56;100.00;141654.97;106504;1269;25342;-67
2024/02/24 00:48:27;;;;;;;34.20;17.20;;;;;;;-2.57;100.00;141652.25;106513;1269;25392;-68
2024/02/24 00:51:13;;;;;;;31.20;16.70;;;;;;;-2.56;100.00;141654.72;106532;1267;25368;-67
2024/02/24 00:53:59;;;;;;;29.60;17.70;;;;;;;-2.55;100.00;141656.72;106544;1268;25526;-68
2024/02/24 00:56:44;;;;;;;33.50;17.60;;;;;;;-2.55;100.00;141656.73;106543;1268;25338;-68
2024/02/24 00:59:30;;;;;;;37.90;18.10;;;;;;;-2.57;100.00;141652.52;106700;1275;25352;-68
2024/02/24 01:02:16;;;;;;;26.60;16.00;;;;;;;-2.58;100.00;141649.27;106849;1269;25394;-69
2024/02/24 01:05:03;;;;;;;27.70;16.80;;;;;;;-2.58;100.00;141648.78;106824;1272;25342;-68
2024/02/24 01:07:49;;;;;;;30.40;16.10;;;;;;;-2.57;100.00;141650.02;106831;1259;25487;-66
2024/02/24 01:10:34;;;;;;;29.70;16.20;;;;;;;-2.57;100.00;141650.53;106842;1268;25418;-70
2024/02/24 01:13:20;;;;;;;28.00;16.70;;;;;;;-2.56;100.00;141654.98;106819;1270;25510;-67
2024/02/24 01:16:06;;;;;;;31.80;16.70;;;;;;;-2.55;100.00;141657.45;106871;1269;25331;-68
2024/02/24 01:18:51;;;;;;;29.60;17.60;;;;;;;-2.56;100.00;141654.72;106916;1266;25386;-70
2024/02/24 01:21:42;;;;;;;28.40;15.00;;;;;;;-2.57;100.00;141651.03;106819;1265;24186;-67
2024/02/24 01:24:28;;;;;;;29.10;16.40;;;;;;;-2.57;100.00;141651.27;106749;1254;25411;-69
2024/02/24 01:27:14;;;;;;;24.90;15.60;;;;;;;-2.55;100.00;141657.47;106858;1270;25408;-63
2024/02/24 01:30:00;;;;;;;27.80;16.80;;;;;;;-2.54;100.00;141659.69;106650;1268;26672;-69
2024/02/24 01:32:46;;;;;;;26.60;15.40;;;;;;;-2.55;100.00;141656.47;106579;1275;25340;-68
2024/02/24 01:35:31;;;;;;;27.90;15.90;;;;;;;-2.54;100.00;141659.94;106649;1259;25332;-67
2024/02/24 01:38:17;;;;;;;27.00;14.60;;;;;;;-2.53;100.00;141660.42;106883;1266;22652;-66
2024/02/24 01:41:03;;;;;;;31.20;16.60;;;;;;;-2.54;100.00;141658.97;106851;1275;25395;-66
2024/02/24 01:43:48;;;;;;;29.10;16.60;;;;;;;-2.55;100.00;141656.95;106890;1266;22580;-67
2024/02/24 01:46:34;;;;;;;29.30;16.80;;;;;;;-2.58;100.00;141648.28;106864;1273;25331;-68
2024/02/24 01:49:20;;;;;;;28.40;16.50;;;;;;;-2.62;100.00;141639.59;106856;1268;25404;-65
2024/02/24 01:52:07;;;;;;;32.70;17.20;;;;;;;-2.64;100.00;141633.91;106854;1264;25369;-67
2024/02/24 01:54:58;;;;;;;28.40;16.40;;;;;;;-2.66;100.00;141629.92;106922;1266;25381;-68
2024/02/24 01:57:44;;;;;;;31.20;16.80;;;;;;;-2.67;100.00;141626.20;106770;1275;24348;-67
2024/02/24 02:00:31;;;;;;;26.80;15.50;;;;;;;-2.69;100.00;141623.50;106695;1263;23906;-68
2024/02/24 02:03:16;;;;;;;30.10;15.80;;;;;;;-2.71;100.00;141616.55;106565;1270;24077;-67
2024/02/24 02:06:03;;;;;;;28.90;15.00;;;;;;;-2.74;100.00;141609.84;106684;1265;25351;-69
2024/02/24 02:08:49;;;;;;;28.70;16.00;;;;;;;-2.75;100.00;141607.11;106814;1266;23872;-66
2024/02/24 02:11:34;;;;;;;27.90;13.30;;;;;;;-2.76;100.00;141605.64;106817;1260;25331;-70
2024/02/24 02:14:36;;;;;;;29.20;15.10;;;;;;;-2.77;100.00;141601.91;106789;1270;25520;-69
2024/02/24 02:17:22;;;;;;;34.30;15.30;;;;;;;-2.78;100.00;141600.17;106812;1276;25357;-68
2024/02/24 02:20:08;;;;;;;26.00;15.30;;;;;;;-2.78;100.00;141600.66;106870;1269;25403;-69
2024/02/24 02:22:54;;;;;;;27.40;15.20;;;;;;;-2.79;100.00;141596.95;106828;1272;25405;-68
2024/02/24 02:25:40;;;;;;;28.10;14.60;;;;;;;-2.81;100.00;141593.00;106773;1270;25475;-68
2024/02/24 02:28:25;;;;;;;29.60;15.20;;;;;;;-2.81;100.00;141592.73;106720;1276;25491;-66
2024/02/24 02:31:11;;;;;;;28.70;14.90;;;;;;;-2.81;100.00;141594.22;106726;1273;25407;-67
2024/02/24 02:33:57;;;;;;;27.40;15.30;;;;;;;-2.80;100.00;141595.95;106676;1272;25347;-67
2024/02/24 02:36:43;;;;;;;29.40;15.70;;;;;;;-2.81;100.00;141592.73;106698;1276;25535;-69
2024/02/24 02:39:28;;;;;;;31.40;16.10;;;;;;;-2.81;100.00;141592.50;106728;1276;25485;-68
2024/02/24 02:42:14;;;;;;;26.00;14.90;;;;;;;-2.83;100.00;141588.00;106740;1275;25393;-66
2024/02/24 02:45:00;;;;;;;24.30;14.50;;;;;;;-2.87;100.00;141580.33;106742;1273;25351;-67
2024/02/24 02:47:46;;;;;;;27.80;13.70;;;;;;;-2.86;100.00;141581.33;106742;1276;25406;-66
2024/02/24 02:50:32;;;;;;;24.40;14.40;;;;;;;-2.87;100.00;141580.09;106706;1272;25422;-66
2024/02/24 02:53:18;;;;;;;27.50;15.50;;;;;;;-2.87;100.00;141579.59;106741;1272;25408;-67
2024/02/24 02:56:04;;;;;;;25.50;14.40;;;;;;;-2.86;100.00;141583.31;106745;1276;25416;-68
2024/02/24 02:58:50;;;;;;;29.70;14.00;;;;;;;-2.84;100.00;141587.05;106742;1276;25348;-68
2024/02/24 03:01:36;;;;;;;26.10;14.70;;;;;;;-2.85;100.00;141584.05;106755;1276;25347;-70
2024/02/24 03:04:21;;;;;;;26.30;14.10;;;;;;;-2.86;100.00;141583.06;106730;1275;25318;-67
2024/02/24 03:07:07;;;;;;;24.00;13.70;;;;;;;-2.86;100.00;141582.33;106708;1276;25455;-67
2024/02/24 03:09:53;;;;;;;30.30;15.40;;;;;;;-2.85;100.00;141583.81;106730;1275;25360;-68
2024/02/24 03:12:39;;;;;;;24.90;13.90;;;;;;;-2.84;100.00;141586.28;106741;1273;25325;-68
2024/02/24 03:15:24;;;;;;;37.60;16.70;;;;;;;-2.88;100.00;141576.13;106804;1275;25322;-69
2024/02/24 03:18:11;;;;;;;29.90;16.00;;;;;;;-2.89;100.00;141573.41;106849;1276;25453;-69
2024/02/24 03:20:56;;;;;;;26.00;15.30;;;;;;;-2.91;100.00;141568.94;106823;1275;25491;-66
2024/02/24 03:23:42;;;;;;;31.90;15.60;;;;;;;-2.93;100.00;141565.22;106897;1275;25338;-66
2024/02/24 03:26:28;;;;;;;30.50;15.70;;;;;;;-2.93;100.00;141565.45;106846;1266;25338;-66
2024/02/24 03:29:14;;;;;;;28.30;16.30;;;;;;;-2.93;100.00;141564.97;106765;1276;25450;-65
2024/02/24 03:32:00;;;;;;;28.70;16.30;;;;;;;-2.91;100.00;141569.17;106852;1270;25408;-65
2024/02/24 03:34:48;;;;;;;30.70;16.20;;;;;;;-2.93;100.00;141565.47;106834;1263;25356;-69
2024/02/24 03:37:34;;;;;;;29.50;15.80;;;;;;;-2.95;100.00;141559.25;106788;1272;25418;-69
2024/02/24 03:40:19;;;;;;;31.40;15.80;;;;;;;-2.98;100.00;141551.83;106826;1267;25353;-66
2024/02/24 03:43:05;;;;;;;26.90;15.10;;;;;;;-3.01;100.00;141543.41;106887;1276;25351;-67
2024/02/24 03:45:50;;;;;;;33.10;16.10;;;;;;;-3.06;100.00;141533.98;106897;1267;26515;-68
2024/02/24 03:48:36;;;;;;;26.50;15.80;;;;;;;-3.08;100.00;141528.53;106796;1267;25329;-67
2024/02/24 03:51:21;;;;;;;25.80;16.50;;;;;;;-3.10;100.00;141523.81;106835;1276;25356;-66
2024/02/24 03:54:07;;;;;;;27.80;15.40;;;;;;;-3.11;100.00;141520.34;106876;1268;22693;-68
2024/02/24 03:56:53;;;;;;;24.60;15.20;;;;;;;-3.10;100.00;141522.09;106828;1265;25328;-67
2024/02/24 03:59:39;;;;;;;30.40;15.70;;;;;;;-3.11;100.00;141519.61;106834;1271;25359;-65
2024/02/24 04:02:25;;;;;;;29.00;16.20;;;;;;;-3.11;100.00;141520.34;106821;1267;25491;-65
2024/02/24 04:05:11;;;;;;;32.10;14.90;;;;;;;-3.12;100.00;141518.38;106836;1273;25395;-68
2024/02/24 04:07:57;;;;;;;28.40;15.90;;;;;;;-3.14;100.00;141513.41;106917;1271;25332;-67
2024/02/24 04:10:44;;;;;;;29.60;15.10;;;;;;;-3.15;100.00;141510.69;106821;1254;25393;-68
2024/02/24 04:13:30;;;;;;;27.90;15.20;;;;;;;-3.18;100.00;141503.97;106808;1274;25368;-69
2024/02/24 04:16:16;;;;;;;28.30;15.30;;;;;;;-3.19;100.00;141500.52;106800;1267;25370;-69
2024/02/24 04:19:01;;;;;;;30.20;15.70;;;;;;;-3.20;100.00;141498.78;106808;1267;25369;-66
2024/02/24 04:21:47;;;;;;;29.90;16.50;;;;;;;-3.21;100.00;141496.05;106938;1267;25825;-69
2024/02/24 04:24:33;;;;;;;24.40;14.10;;;;;;;-3.21;100.00;141495.06;106712;1267;25344;-67
2024/02/24 04:27:19;;;;;;;25.90;15.90;;;;;;;-3.23;100.00;141490.59;106745;1267;25367;-70
2024/02/24 04:30:05;;;;;;;27.30;15.30;;;;;;;-3.23;100.00;141491.09;106585;1270;23831;-70
2024/02/24 04:32:51;;;;;;;28.40;16.30;;;;;;;-3.22;100.00;141492.84;106594;1278;25341;-67
2024/02/24 04:35:37;;;;;;;36.00;16.30;;;;;;;-3.24;100.00;141489.84;106642;1267;25351;-67
2024/02/24 04:38:23;;;;;;;28.60;15.60;;;;;;;-3.23;100.00;141490.09;106615;1272;25400;-65
2024/02/24 04:41:08;;;;;;;30.00;16.10;;;;;;;-3.25;100.00;141487.14;106682;1270;25408;-68
2024/02/24 04:43:54;;;;;;;29.00;15.30;;;;;;;-3.28;100.00;141480.20;106696;1267;25389;-67
2024/02/24 04:46:40;;;;;;;30.00;15.20;;;;;;;-3.30;100.00;141474.75;106730;1274;25331;-67
2024/02/24 04:49:26;;;;;;;25.10;14.40;;;;;;;-3.31;100.00;141472.53;106706;1264;25369;-66
2024/02/24 04:52:11;;;;;;;27.10;15.00;;;;;;;-3.32;100.00;141471.00;106728;1267;25376;-68
2024/02/24 04:54:57;;;;;;;26.20;15.10;;;;;;;-3.34;100.00;141466.06;106711;1267;25370;-66
2024/02/24 04:57:44;;;;;;;31.10;16.10;;;;;;;-3.35;100.00;141463.84;106711;1263;25331;-68
2024/02/24 05:00:29;;;;;;;23.60;14.40;;;;;;;-3.34;100.00;141464.58;106702;1265;25372;-67
2024/02/24 05:03:15;;;;;;;28.80;16.90;;;;;;;-3.35;100.00;141462.84;106722;1276;25603;-68
2024/02/24 05:06:01;;;;;;;25.50;14.90;;;;;;;-3.36;100.00;141459.38;106725;1274;25491;-66
2024/02/24 05:08:47;;;;;;;23.80;15.40;;;;;;;-3.37;100.00;141458.14;106704;1267;25510;-65
2024/02/24 05:11:32;;;;;;;25.30;14.60;;;;;;;-3.37;100.00;141457.66;106727;1277;25437;-65
2024/02/24 05:14:18;;;;;;;26.20;14.80;;;;;;;-3.38;100.00;141455.42;106911;1267;22540;-67
2024/02/24 05:17:07;;;;;;;24.20;13.50;;;;;;;-3.37;100.00;141457.64;106836;1268;25345;-69
2024/02/24 05:19:52;;;;;;;26.50;14.20;;;;;;;-3.36;100.00;141459.88;106993;1264;25417;-67
2024/02/24 05:22:38;;;;;;;24.90;14.60;;;;;;;-3.35;100.00;141463.34;106714;1269;25356;-65
2024/02/24 05:25:23;;;;;;;25.40;14.50;;;;;;;-3.33;100.00;141466.81;106710;1270;25488;-67
2024/02/24 05:28:09;;;;;;;27.00;14.20;;;;;;;-3.35;100.00;141463.34;106740;1275;25440;-65
2024/02/24 05:30:55;;;;;;;24.60;14.40;;;;;;;-3.35;100.00;141462.11;106698;1267;25518;-69
2024/02/24 05:33:41;;;;;;;28.00;14.60;;;;;;;-3.35;100.00;141462.36;106697;1276;25405;-69
2024/02/24 05:36:27;;;;;;;25.70;13.50;;;;;;;-3.35;100.00;141462.09;106731;1275;26607;-64
2024/02/24 05:39:13;;;;;;;25.10;14.00;;;;;;;-3.34;100.00;141466.06;106709;1269;25501;-69
2024/02/24 05:41:58;;;;;;;26.00;13.20;;;;;;;-3.31;100.00;141472.52;106703;1267;25359;-66
2024/02/24 05:44:44;;;;;;;26.10;13.80;;;;;;;-3.30;100.00;141476.47;106706;1267;25411;-68
2024/02/24 05:47:30;;;;;;;25.70;13.20;;;;;;;-3.30;100.00;141475.00;106727;1270;25331;-67
2024/02/24 05:50:16;;;;;;;25.20;12.00;;;;;;;-3.29;100.00;141477.45;106759;1267;25394;-66
2024/02/24 05:53:02;;;;;;;21.40;12.10;;;;;;;-3.27;100.00;141483.16;106692;1268;25331;-65
2024/02/24 05:55:49;;;;;;;21.60;12.10;;;;;;;-3.24;100.00;141489.63;106726;1267;25418;-70
2024/02/24 05:58:35;;;;;;;25.50;13.60;;;;;;;-3.23;100.00;141491.84;106730;1277;25408;-69
2024/02/24 06:01:21;;;;;;;23.50;12.90;;;;;;;-3.22;100.00;141492.59;106713;1272;25360;-68
2024/02/24 06:04:06;;;;;;;24.20;12.20;;;;;;;-3.22;100.00;141493.34;106705;1276;25381;-69
2024/02/24 06:06:53;;;;;;;24.20;12.00;;;;;;;-3.20;100.00;141498.80;106712;1277;25328;-67
2024/02/24 06:09:38;;;;;;;19.90;12.60;;;;;;;-3.17;100.00;141505.97;106683;1266;25373;-68
2024/02/24 06:12:23;;;;;;;25.10;13.60;;;;;;;-3.13;100.00;141515.14;106765;1267;22624;-67
2024/02/24 06:15:11;;;;;;;24.10;13.20;;;;;;;-3.12;100.00;141518.36;106799;1270;25370;-69
2024/02/24 06:17:56;;;;;;;24.30;13.20;;;;;;;-3.10;100.00;141522.59;106815;1272;25418;-68
2024/02/24 06:20:42;;;;;;;29.80;13.70;;;;;;;-3.08;100.00;141527.78;106794;1267;25370;-69
2024/02/24 06:23:27;;;;;;;25.50;12.00;;;;;;;-3.05;100.00;141534.72;106774;1273;25331;-65
2024/02/24 06:26:13;;;;;;;24.80;13.00;;;;;;;-3.01;100.00;141545.38;106871;1267;25439;-68
2024/02/24 06:28:59;;;;;;;19.20;10.50;;;;;;;-2.97;100.00;141555.55;106868;1267;25488;-67
2024/02/24 06:31:44;;;;;;;20.70;11.00;;;;;;;-2.97;100.00;141554.30;106848;1264;25339;-66
2024/02/24 06:34:30;;;;;;;22.00;10.40;;;;;;;-2.95;100.00;141559.03;106886;1275;25417;-67
2024/02/24 06:37:16;;;;;;;23.00;12.00;;;;;;;-2.95;100.00;141559.28;106824;1260;23277;-68
2024/02/24 06:40:02;;;;;;;21.40;12.10;;;;;;;-2.91;100.00;141569.67;106761;1267;25331;-66
2024/02/24 06:42:48;;;;;;;24.30;12.10;;;;;;;-2.90;100.00;141571.41;106932;1269;25493;-67
2024/02/24 06:45:34;;;;;;;24.70;11.40;;;;;;;-2.88;100.00;141576.13;107031;1258;25369;-68
2024/02/24 06:48:19;;;;;;;24.10;11.90;;;;;;;-2.88;100.00;141576.34;106838;1272;25400;-69
2024/02/24 06:51:05;;;;;;;23.80;11.90;;;;;;;-2.87;100.00;141578.86;106848;1260;25376;-66
2024/02/24 06:53:54;;;;;;;18.20;10.50;;;;;;;-2.86;100.00;141583.06;106873;1273;25535;-69
2024/02/24 06:56:40;;;;;;;18.20;11.10;;;;;;;-2.83;100.00;141589.02;106823;1260;25443;-69
2024/02/24 06:59:27;;;;;;;20.30;10.80;;;;;;;-2.80;100.00;141595.95;106847;1262;24360;-69
2024/02/24 07:02:13;;;;;;;20.00;11.90;;;;;;;-2.75;100.00;141606.88;106853;1267;25351;-69
2024/02/24 07:05:02;;;;;;;22.70;12.10;;;;;;;-2.71;100.00;141616.55;106980;1267;25331;-66
2024/02/24 07:07:47;;;;;;;16.60;10.10;;;;;;;-2.67;100.00;141627.69;106836;1266;25407;-68
2024/02/24 07:10:33;;;;;;;18.70;10.30;;;;;;;-2.63;100.00;141637.63;106878;1266;25334;-70
2024/02/24 07:13:19;;;;;;;21.70;10.20;;;;;;;-2.58;100.00;141649.03;106897;1267;25320;-68
2024/02/24 07:16:06;;;;;;;19.70;10.70;;;;;;;-2.53;100.00;141660.44;106777;1270;25349;-68
2024/02/24 07:18:55;;;;;;;22.90;12.20;;;;;;;-2.52;100.00;141664.66;106964;1262;22542;-69
2024/02/24 07:21:43;;;;;;;22.60;10.40;;;;;;;-2.45;100.00;141681.53;106760;1266;25480;-68
2024/02/24 07:24:28;;;;;;;19.60;10.10;;;;;;;-2.41;100.00;141691.69;106635;1267;25341;-69
2024/02/24 07:27:14;;;;;;;18.50;10.00;;;;;;;-2.36;100.00;141702.63;106582;1265;25329;-69
2024/02/24 07:30:00;;;;;;;19.50;10.00;;;;;;;-2.36;100.00;141702.63;106715;1266;25348;-68
2024/02/24 07:32:46;;;;;;;18.50;10.00;;;;;;;-2.32;100.00;141711.78;106684;1267;25356;-69
2024/02/24 07:35:32;;;;;;;19.60;10.00;;;;;;;-2.26;100.00;141727.16;106666;1267;25403;-67
2024/02/24 07:38:18;;;;;;;21.00;10.80;;;;;;;-2.22;100.00;141735.34;106582;1274;25379;-70
2024/02/24 07:41:04;;;;;;;21.60;9.70;;;;;;;-2.21;100.00;141739.83;106622;1267;25415;-68
2024/02/24 07:43:50;;;;;;;19.70;8.40;;;;;;;-2.20;100.00;141741.55;106737;1263;25592;-68
2024/02/24 07:46:36;;;;;;;16.00;9.30;;;;;;;-2.13;100.00;141757.92;106552;1278;25382;-70
2024/02/24 07:49:21;;;;;;;19.30;9.90;;;;;;;-2.13;100.00;141758.67;106691;1260;22533;-67
2024/02/24 07:52:07;;;;;;;16.10;8.80;;;;;;;-2.08;100.00;141769.59;106656;1267;25389;-68
2024/02/24 07:54:53;;;;;;;14.30;8.50;;;;;;;-2.12;100.00;141760.89;106791;1270;25491;-69
2024/02/24 07:57:39;;;;;;;18.50;9.60;;;;;;;-2.13;100.00;141757.17;106658;1267;25424;-71
2024/02/24 08:00:25;;;;;;;20.60;10.10;;;;;;;-2.07;100.00;141772.33;106651;1267;25396;-69
2024/02/24 08:03:11;;;;;;;14.90;9.50;;;;;;;-2.03;100.00;141782.47;106594;1267;26093;-68
2024/02/24 08:05:56;;;;;;;20.30;9.90;;;;;;;-2.03;100.00;141781.50;106615;1266;24243;-68
2024/02/24 08:08:43;;;;;;;17.70;10.40;;;;;;;-2.01;100.00;141787.22;106623;1260;25369;-67
2024/02/24 08:11:36;;;;;;;20.60;9.50;;;;;;;-2.02;100.00;141785.47;106922;1267;25334;-69
2024/02/24 08:14:22;;;;;;;24.20;10.80;;;;;;;-1.96;100.00;141798.11;107056;1270;25331;-69
2024/02/24 08:17:08;;;;;;;17.40;10.00;;;;;;;-1.89;100.00;141814.75;106689;1277;22531;-70
2024/02/24 08:19:54;;;;;;;19.20;9.60;;;;;;;-1.81;100.00;141835.83;106639;1266;25409;-67
2024/02/24 08:22:40;;;;;;;18.50;10.10;;;;;;;-1.71;100.00;141859.92;106694;1267;25488;-70
2024/02/24 08:25:25;;;;;;;21.60;10.10;;;;;;;-1.61;100.00;141884.22;106678;1264;25940;-67
2024/02/24 08:28:13;;;;;;;19.10;9.80;;;;;;;-1.52;100.00;141904.11;106614;1265;25366;-69
2024/02/24 08:30:59;;;;;;;18.20;8.50;;;;;;;-1.50;100.00;141909.08;106579;1264;25379;-68
2024/02/24 08:33:45;;;;;;;15.10;9.10;;;;;;;-1.52;100.00;141904.86;106524;1266;25379;-70
2024/02/24 08:36:31;;;;;;;19.10;9.00;;;;;;;-1.49;100.00;141912.03;106641;1267;24209;-69
2024/02/24 08:39:17;;;;;;;19.70;9.30;;;;;;;-1.44;100.00;141923.97;106647;1269;23904;-69
2024/02/24 08:42:03;;;;;;;23.90;9.80;;;;;;;-1.29;100.00;141962.19;106675;1267;25493;-70
2024/02/24 08:44:48;;;;;;;16.10;9.50;;;;;;;-1.25;100.00;141972.88;106676;1267;24208;-71
2024/02/24 08:47:34;;;;;;;14.40;8.10;;;;;;;-1.24;100.00;141973.84;106664;1267;25389;-72
2024/02/24 08:50:20;;;;;;;18.00;9.00;;;;;;;-1.26;100.00;141970.13;106660;1267;25383;-69
2024/02/24 08:53:06;;;;;;;15.80;8.50;;;;;;;-1.29;100.00;141960.97;106666;1267;25421;-70
2024/02/24 08:55:52;;;;;;;17.50;8.80;;;;;;;-1.38;100.00;141939.36;106646;1264;25479;-71
2024/02/24 08:58:38;;;;;;;14.20;8.50;;;;;;;-1.36;100.00;141946.08;106629;1267;25341;-71
2024/02/24 09:01:23;;;;;;;19.10;8.30;;;;;;;-1.32;100.00;141954.50;106638;1267;22532;-73
2024/02/24 09:04:10;;;;;;;15.70;8.10;;;;;;;-1.34;100.00;141949.78;106685;1266;25430;-72
2024/02/24 09:06:56;;;;;;;17.40;8.40;;;;;;;-1.36;100.00;141944.33;106683;1267;25340;-69
2024/02/24 09:09:41;;;;;;;16.40;8.40;;;;;;;-1.34;100.00;141949.28;106712;1268;25482;-68
2024/02/24 09:12:27;;;;;;;18.50;9.80;;;;;;;-1.30;100.00;141959.72;106706;1267;25369;-66
2024/02/24 09:15:12;;;;;;;19.60;9.50;;;;;;;-1.34;100.00;141949.05;106681;1265;25344;-70
2024/02/24 09:17:58;;;;;;;14.80;9.00;;;;;;;-1.31;100.00;141957.72;106678;1268;25379;-68
2024/02/24 09:20:45;;;;;;;17.10;9.20;;;;;;;-1.29;100.00;141961.44;106741;1267;25349;-65
2024/02/24 09:23:31;;;;;;;22.70;10.10;;;;;;;-1.27;100.00;141967.41;106971;1266;22533;-68
2024/02/24 09:26:16;;;;;;;21.10;10.40;;;;;;;-1.25;100.00;141972.38;106959;1267;25360;-70
2024/02/24 09:29:02;;;;;;;20.30;10.20;;;;;;;-1.18;100.00;141988.52;106899;1270;25412;-68
2024/02/24 09:31:47;;;;;;;14.30;8.40;;;;;;;-1.15;100.00;141994.97;106642;1263;25427;-68
2024/02/24 09:34:33;;;;;;;19.60;9.50;;;;;;;-1.11;100.00;142006.64;106649;1267;25491;-69
2024/02/24 09:37:19;;;;;;;17.50;9.20;;;;;;;-1.05;100.00;142018.30;106657;1267;25373;-72
2024/02/24 09:40:06;;;;;;;17.50;9.60;;;;;;;-1.02;100.00;142027.50;106609;1277;25354;-68
2024/02/24 09:43:03;;;;;;;20.90;10.30;;;;;;;-0.99;100.00;142033.47;106660;1266;25347;-67
2024/02/24 09:45:51;;;;;;;16.70;10.60;;;;;;;-0.97;100.00;142039.17;106705;1259;25370;-67
2024/02/24 09:48:38;;;;;;;17.90;9.20;;;;;;;-0.92;100.00;142053.09;106590;1260;25409;-67
2024/02/24 09:51:24;;;;;;;17.90;9.40;;;;;;;-0.83;100.00;142074.45;106792;1267;25337;-65
2024/02/24 09:54:10;;;;;;;18.30;9.80;;;;;;;-0.79;100.00;142084.14;106982;1256;25367;-70
2024/02/24 09:56:56;;;;;;;17.00;9.20;;;;;;;-0.67;100.00;142113.45;106732;1259;23789;-70
2024/02/24 09:59:45;;;;;;;17.80;9.30;;;;;;;-0.61;100.00;142127.11;106844;1266;25509;-69
2024/02/24 10:02:32;;;;;;;18.80;9.50;;;;;;;-0.63;100.00;142122.91;106715;1262;24279;-68
2024/02/24 10:05:18;;;;;;;22.00;9.30;;;;;;;-0.58;100.00;142132.59;106696;1269;25490;-70
2024/02/24 10:08:04;;;;;;;19.60;9.70;;;;;;;-0.57;100.00;142136.06;106684;1267;25334;-67
2024/02/24 10:10:51;;;;;;;21.10;9.30;;;;;;;-0.57;100.00;142135.80;106591;1265;25359;-68
2024/02/24 10:13:37;;;;;;;18.10;10.00;;;;;;;-0.60;100.00;142129.84;106640;1278;25334;-70
2024/02/24 10:16:24;;;;;;;17.30;9.50;;;;;;;-0.60;100.00;142129.59;106628;1278;25359;-66
2024/02/24 10:19:09;;;;;;;17.70;9.20;;;;;;;-0.56;100.00;142140.03;106845;1274;22533;-67
2024/02/24 10:21:56;;;;;;;18.30;9.10;;;;;;;-0.51;100.00;142150.22;107059;1259;24502;-70
2024/02/24 10:24:41;;;;;;;16.50;8.40;;;;;;;-0.50;100.00;142152.72;106682;1266;25331;-67
2024/02/24 10:27:30;;;;;;;20.20;9.70;;;;;;;-0.51;100.00;142150.47;106650;1277;25391;-68
2024/02/24 10:30:16;;;;;;;23.10;9.70;;;;;;;-0.50;100.00;142152.72;106583;1268;25826;-67
2024/02/24 10:33:06;;;;;;;22.50;12.00;;;;;;;-0.49;100.00;142154.95;106613;1260;25379;-71
2024/02/24 10:35:54;;;;;;;18.00;9.90;;;;;;;-0.44;100.00;142169.38;106612;1257;25370;-70
2024/02/24 10:38:41;;;;;;;17.20;8.80;;;;;;;-0.43;100.00;142170.34;106596;1267;25383;-67
2024/02/24 10:41:27;;;;;;;18.40;9.10;;;;;;;-0.44;100.00;142169.59;106666;1268;25397;-69
2024/02/24 10:44:16;;;;;;;15.70;8.20;;;;;;;-0.40;100.00;142178.30;106648;1267;25379;-66
2024/02/24 10:47:08;;;;;;;;;;;;;;;-0.28;100.00;142206.14;106874;1259;22772;-70
2024/02/24 10:49:54;;;;;;;19.10;8.80;;;;;;;-0.17;100.00;142233.22;106704;1264;25437;-70
2024/02/24 10:52:40;;;;;;;22.10;9.50;;;;;;;-0.19;100.00;142228.00;106728;1259;22617;-69
2024/02/24 10:55:28;;;;;;;19.80;10.40;;;;;;;-0.20;100.00;142225.03;106720;1257;25382;-68
2024/02/24 10:58:19;;;;;;;16.00;8.70;;;;;;;-0.22;100.00;142222.55;106652;1259;25331;-66
2024/02/24 11:01:05;;;;;;;17.70;9.80;;;;;;;-0.25;100.00;142214.08;106621;1264;25369;-67
2024/02/24 11:03:53;;;;;;;21.80;10.20;;;;;;;-0.22;100.00;142221.55;106616;1277;25350;-71
2024/02/24 11:06:49;;;;;;;19.60;10.30;;;;;;;-0.22;100.00;142221.30;106631;1267;25437;-69
2024/02/24 11:09:37;;;;;;;22.40;9.50;;;;;;;-0.17;100.00;142233.47;106673;1256;25427;-69
2024/02/24 11:12:27;;;;;;;17.40;9.20;;;;;;;-0.10;100.00;142249.91;106704;1259;25421;-69
2024/02/24 11:15:23;;;;;;;15.90;9.10;;;;;;;-0.03;100.00;142267.78;106651;1256;25443;-70
2024/02/24 11:18:09;;;;;;;17.50;9.50;;;;;;;0.04;100.00;142284.45;106692;1256;25411;-70
2024/02/24 11:20:54;;;;;;;17.70;8.40;;;;;;;0.09;100.00;142297.11;106671;1259;25379;-69
2024/02/24 11:23:44;;;;;;;18.20;9.70;;;;;;;0.12;100.00;142304.83;106669;1259;25366;-70
2024/02/24 11:26:32;;;;;;;19.10;9.20;;;;;;;0.14;100.00;142308.56;106646;1266;25452;-69
2024/02/24 11:29:18;;;;;;;17.80;9.70;;;;;;;0.13;100.00;142306.31;106655;1259;25459;-71
2024/02/24 11:32:04;;;;;;;17.90;9.30;;;;;;;0.20;100.00;142325.22;106672;1267;25452;-69
2024/02/24 11:34:50;;;;;;;19.00;10.50;;;;;;;0.23;100.00;142330.92;106795;1256;24366;-71
2024/02/24 11:37:37;;;;;;;15.70;9.30;;;;;;;0.30;100.00;142348.09;106793;1259;25436;-69
2024/02/24 11:40:23;;;;;;;20.00;8.90;;;;;;;0.29;100.00;142345.34;107030;1257;25480;-68
2024/02/24 11:43:10;;;;;;;15.30;9.10;;;;;;;0.31;100.00;142350.33;106886;1277;22523;-69
2024/02/24 11:45:55;;;;;;;14.40;7.90;;;;;;;0.40;100.00;142372.20;106472;1271;25425;-71
2024/02/24 11:48:41;;;;;;;16.30;8.40;;;;;;;0.51;100.00;142400.05;106648;1275;25424;-68
2024/02/24 11:51:28;;;;;;;20.40;9.30;;;;;;;0.56;100.00;142410.50;106720;1277;25345;-69
2024/02/24 11:54:16;;;;;;;14.80;8.30;;;;;;;0.50;100.00;142395.58;106708;1259;25370;-67
2024/02/24 11:57:03;;;;;;;14.00;7.60;;;;;;;0.45;100.00;142385.14;106737;1270;25379;-68
2024/02/24 11:59:51;;;;;;;16.80;8.50;;;;;;;0.42;100.00;142377.66;106625;1277;25390;-67
2024/02/24 12:02:37;;;;;;;18.30;8.40;;;;;;;0.40;100.00;142372.47;106689;1277;25392;-69
2024/02/24 12:05:24;;;;;;;18.70;8.50;;;;;;;0.38;100.00;142366.47;106662;1277;25363;-66
2024/02/24 12:08:18;;;;;;;16.60;8.50;;;;;;;0.41;100.00;142374.45;106670;1277;25454;-68
2024/02/24 12:11:04;;;;;;;13.70;8.10;;;;;;;0.50;100.00;142395.58;106625;1277;25334;-68
2024/02/24 12:13:51;;;;;;;16.10;8.40;;;;;;;0.52;100.00;142401.31;106656;1277;25418;-69
2024/02/24 12:16:37;;;;;;;19.60;8.70;;;;;;;0.54;100.00;142406.77;106654;1277;25415;-67
2024/02/24 12:19:27;;;;;;;16.70;9.50;;;;;;;0.63;100.00;142428.91;106671;1259;25369;-68
2024/02/24 12:22:13;;;;;;;13.80;7.60;;;;;;;0.68;100.00;142438.84;106687;1277;25331;-67